createdAt,value
2022-09-10T00:00:01.053Z,82.00
2022-09-10T00:02:28.978Z,81.90
2022-09-10T00:04:56.964Z,81.90
2022-09-10T00:07:24.649Z,81.90
2022-09-10T00:09:52.186Z,81.90
2022-09-10T00:12:20.083Z,82.00
2022-09-10T00:14:47.762Z,82.20
2022-09-10T00:17:15.394Z,81.90
2022-09-10T00:19:44.222Z,81.60
2022-09-10T00:22:13.458Z,81.30
2022-09-10T00:24:41.245Z,81.00
2022-09-10T00:27:10.014Z,80.80
2022-09-10T00:29:38.399Z,80.70
2022-09-10T00:32:06.095Z,80.60
2022-09-10T00:34:34.624Z,80.60
2022-09-10T00:37:02.301Z,80.50
2022-09-10T00:39:29.920Z,80.30
2022-09-10T00:41:58.572Z,80.30
2022-09-10T00:44:40.977Z,80.30
2022-09-10T00:47:15.107Z,80.30
2022-09-10T00:49:47.562Z,80.40
2022-09-10T00:52:15.646Z,80.30
2022-09-10T00:54:44.015Z,80.50
2022-09-10T00:57:14.501Z,80.50
2022-09-10T00:59:44.227Z,80.50
2022-09-10T01:02:12.368Z,80.60
2022-09-10T01:04:40.541Z,80.80
2022-09-10T01:07:09.997Z,80.60
2022-09-10T01:09:38.343Z,80.60
2022-09-10T01:12:26.067Z,80.60
2022-09-10T01:15:13.391Z,80.50
2022-09-10T01:17:59.570Z,81.00
2022-09-10T01:20:46.728Z,80.10
2022-09-10T01:23:26.375Z,80.00
2022-09-10T01:25:57.813Z,80.10
2022-09-10T01:28:29.730Z,80.00
2022-09-10T01:31:00.954Z,80.00
2022-09-10T01:33:37.671Z,79.90
2022-09-10T01:36:09.800Z,79.90
2022-09-10T01:38:39.064Z,79.70
2022-09-10T01:41:07.206Z,79.60
2022-09-10T01:43:35.309Z,79.50
2022-09-10T01:46:18.757Z,79.60
2022-09-10T01:48:55.427Z,79.40
2022-09-10T01:51:23.820Z,79.30
2022-09-10T01:53:56.633Z,79.20
2022-09-10T01:56:40.795Z,79.20
2022-09-10T01:59:27.205Z,79.30
2022-09-10T02:02:01.592Z,79.20
2022-09-10T02:04:30.285Z,79.20
2022-09-10T02:06:58.726Z,79.20
2022-09-10T02:09:26.371Z,79.10
2022-09-10T02:11:56.323Z,79.10
2022-09-10T02:14:26.695Z,78.90
2022-09-10T02:16:58.933Z,78.90
2022-09-10T02:19:27.300Z,79.00
2022-09-10T02:21:57.029Z,79.10
2022-09-10T02:24:25.196Z,79.00
2022-09-10T02:26:53.070Z,79.10
2022-09-10T02:29:21.891Z,79.00
2022-09-10T02:31:49.512Z,79.10
2022-09-10T02:34:17.327Z,79.20
2022-09-10T02:36:47.082Z,79.20
2022-09-10T02:39:14.836Z,79.20
2022-09-10T02:41:42.465Z,79.40
2022-09-10T02:44:10.417Z,79.40
2022-09-10T02:46:38.394Z,79.50
2022-09-10T02:49:06.509Z,79.50
2022-09-10T02:51:37.154Z,79.70
2022-09-10T02:54:05.153Z,79.70
2022-09-10T02:56:32.783Z,79.80
2022-09-10T02:59:00.886Z,79.70
2022-09-10T03:01:30.971Z,80.00
2022-09-10T03:03:58.871Z,79.90
2022-09-10T03:06:27.368Z,80.40
2022-09-10T03:08:55.651Z,79.90
2022-09-10T03:11:24.372Z,79.70
2022-09-10T03:13:53.113Z,79.70
2022-09-10T03:16:21.139Z,79.60
2022-09-10T03:18:48.915Z,79.60
2022-09-10T03:21:18.556Z,79.80
2022-09-10T03:23:48.335Z,79.80
2022-09-10T03:26:20.324Z,79.80
2022-09-10T03:28:48.597Z,79.90
2022-09-10T03:31:16.795Z,80.00
2022-09-10T03:33:46.409Z,80.00
2022-09-10T03:36:14.276Z,79.90
2022-09-10T03:38:42.309Z,79.80
2022-09-10T03:41:10.657Z,79.70
2022-09-10T03:43:38.841Z,79.70
2022-09-10T03:46:06.839Z,79.60
2022-09-10T03:48:35.900Z,79.50
2022-09-10T03:51:03.839Z,79.40
2022-09-10T03:53:31.365Z,79.40
2022-09-10T03:56:00.769Z,79.40
2022-09-10T03:58:28.913Z,79.40
2022-09-10T04:00:56.761Z,79.40
2022-09-10T04:03:25.015Z,79.50
2022-09-10T04:05:52.698Z,79.60
2022-09-10T04:08:20.893Z,79.50
2022-09-10T04:10:49.680Z,79.60
2022-09-10T04:13:17.418Z,79.60
2022-09-10T04:15:47.847Z,79.60
2022-09-10T04:18:16.644Z,79.60
2022-09-10T04:20:48.245Z,79.70
2022-09-10T04:23:16.710Z,79.70
2022-09-10T04:25:44.676Z,79.70
2022-09-10T04:28:12.460Z,79.70
2022-09-10T04:30:40.975Z,79.70
2022-09-10T04:33:09.795Z,79.80
2022-09-10T04:35:37.725Z,79.90
2022-09-10T04:38:06.499Z,79.80
2022-09-10T04:40:35.419Z,79.90
2022-09-10T04:43:03.079Z,80.00
2022-09-10T04:45:33.445Z,80.00
2022-09-10T04:48:06.170Z,80.00
2022-09-10T04:50:35.910Z,80.00
2022-09-10T04:53:08.180Z,80.10
2022-09-10T04:55:39.723Z,79.90
2022-09-10T04:58:07.890Z,80.00
2022-09-10T05:00:35.960Z,80.10
2022-09-10T05:03:06.201Z,80.30
2022-09-10T05:05:34.318Z,80.10
2022-09-10T05:08:03.375Z,80.00
2022-09-10T05:10:31.214Z,80.50
2022-09-10T05:12:58.939Z,79.70
2022-09-10T05:15:26.997Z,79.80
2022-09-10T05:17:56.273Z,79.80
2022-09-10T05:20:23.957Z,79.70
2022-09-10T05:22:52.164Z,79.60
2022-09-10T05:25:19.773Z,79.60
2022-09-10T05:27:48.537Z,79.70
2022-09-10T05:30:17.980Z,79.80
2022-09-10T05:32:47.587Z,80.50
2022-09-10T05:35:15.283Z,80.00
2022-09-10T05:37:44.110Z,79.90
2022-09-10T05:40:13.924Z,80.00
2022-09-10T05:42:41.840Z,80.00
2022-09-10T05:45:13.117Z,79.90
2022-09-10T05:47:41.111Z,80.00
2022-09-10T05:50:12.112Z,79.90
2022-09-10T05:52:39.707Z,79.80
2022-09-10T05:55:07.958Z,79.80
2022-09-10T05:57:35.811Z,79.90
2022-09-10T06:00:09.571Z,79.90
2022-09-10T06:02:42.506Z,79.90
2022-09-10T06:05:12.984Z,80.00
2022-09-10T06:07:40.933Z,80.00
2022-09-10T06:10:09.049Z,79.90
2022-09-10T06:12:38.429Z,79.90
2022-09-10T06:15:07.499Z,79.90
2022-09-10T06:17:35.837Z,79.80
2022-09-10T06:20:04.586Z,79.80
2022-09-10T06:22:34.111Z,79.90
2022-09-10T06:25:02.591Z,79.90
2022-09-10T06:27:30.683Z,79.90
2022-09-10T06:29:58.282Z,79.90
2022-09-10T06:32:26.079Z,80.00
2022-09-10T06:34:55.170Z,79.90
2022-09-10T06:37:23.173Z,79.90
2022-09-10T06:39:51.240Z,80.00
2022-09-10T06:42:19.362Z,80.00
2022-09-10T06:44:50.516Z,79.90
2022-09-10T06:47:55.762Z,79.80
2022-09-10T06:50:07.133Z,79.70
2022-09-10T06:52:35.926Z,79.70
2022-09-10T06:55:05.741Z,79.60
2022-09-10T06:57:34.057Z,79.70
2022-09-10T07:00:03.024Z,79.50
2022-09-10T07:02:31.174Z,79.40
2022-09-10T07:04:59.637Z,79.40
2022-09-10T07:07:28.526Z,79.30
2022-09-10T07:09:56.269Z,79.30
2022-09-10T07:12:24.052Z,79.30
2022-09-10T07:14:52.945Z,79.30
2022-09-10T07:17:21.285Z,79.40
2022-09-10T07:19:49.132Z,79.30
2022-09-10T07:22:18.271Z,79.20
2022-09-10T07:24:48.943Z,79.30
2022-09-10T07:27:20.078Z,79.20
2022-09-10T07:29:47.677Z,79.20
2022-09-10T07:32:15.745Z,79.20
2022-09-10T07:34:44.071Z,79.10
2022-09-10T07:37:12.197Z,79.20
2022-09-10T07:39:40.698Z,79.10
2022-09-10T07:42:10.560Z,79.20
2022-09-10T07:44:38.477Z,79.30
2022-09-10T07:47:06.836Z,79.20
2022-09-10T07:49:34.893Z,79.30
2022-09-10T07:52:04.120Z,79.30
2022-09-10T07:54:32.178Z,79.30
2022-09-10T07:57:00.589Z,79.20
2022-09-10T07:59:28.488Z,79.20
2022-09-10T08:01:57.083Z,79.20
2022-09-10T08:04:25.505Z,79.20
2022-09-10T08:06:53.276Z,79.20
2022-09-10T08:09:21.071Z,79.10
2022-09-10T08:11:49.298Z,79.00
2022-09-10T08:14:17.075Z,79.00
2022-09-10T08:16:46.639Z,79.00
2022-09-10T08:19:15.330Z,79.00
2022-09-10T08:21:43.705Z,79.10
2022-09-10T08:24:11.799Z,79.10
2022-09-10T08:26:40.315Z,79.20
2022-09-10T08:29:08.052Z,79.30
2022-09-10T08:31:37.233Z,79.30
2022-09-10T08:34:05.875Z,79.40
2022-09-10T08:36:34.242Z,79.40
2022-09-10T08:39:06.270Z,79.40
2022-09-10T08:41:39.130Z,79.50
2022-09-10T08:44:09.705Z,79.50
2022-09-10T08:46:38.297Z,79.60
2022-09-10T08:49:08.914Z,79.60
2022-09-10T08:51:42.726Z,79.50
2022-09-10T08:54:13.869Z,79.50
2022-09-10T08:56:43.062Z,79.70
2022-09-10T08:59:30.934Z,79.70
2022-09-10T09:02:01.279Z,80.20
2022-09-10T09:04:36.811Z,80.50
2022-09-10T09:07:10.647Z,80.40
2022-09-10T09:09:38.180Z,80.70
2022-09-10T09:12:15.986Z,80.80
2022-09-10T09:15:19.683Z,80.60
2022-09-10T09:17:54.151Z,80.50
2022-09-10T09:20:45.227Z,80.50
2022-09-10T09:23:16.645Z,80.50
2022-09-10T09:25:46.797Z,80.40
2022-09-10T09:28:19.298Z,80.10
2022-09-10T09:30:49.855Z,80.10
2022-09-10T09:33:20.117Z,80.00
2022-09-10T09:35:52.792Z,80.00
2022-09-10T09:38:26.800Z,79.90
2022-09-10T09:40:58.305Z,80.00
2022-09-10T09:43:35.405Z,79.80
2022-09-10T09:46:03.627Z,79.80
2022-09-10T09:48:37.799Z,79.60
2022-09-10T09:51:07.828Z,79.70
2022-09-10T09:53:35.820Z,79.80
2022-09-10T09:56:12.121Z,79.80
2022-09-10T09:58:43.330Z,79.90
2022-09-10T10:01:13.446Z,80.00
2022-09-10T10:03:48.643Z,80.20
2022-09-10T10:06:16.650Z,80.40
2022-09-10T10:08:45.508Z,80.50
2022-09-10T10:11:18.067Z,80.70
2022-09-10T10:13:46.632Z,80.80
2022-09-10T10:16:37.252Z,80.80
2022-09-10T10:19:25.095Z,81.00
2022-09-10T10:21:53.797Z,81.40
2022-09-10T10:24:32.367Z,80.60
2022-09-10T10:27:00.613Z,80.70
2022-09-10T10:29:28.596Z,80.40
2022-09-10T10:31:56.514Z,80.40
2022-09-10T10:34:28.496Z,80.30
2022-09-10T10:37:05.680Z,80.20
2022-09-10T10:39:43.662Z,80.20
2022-09-10T10:42:21.447Z,80.10
2022-09-10T10:44:52.538Z,80.00
2022-09-10T10:47:23.336Z,79.90
2022-09-10T10:49:58.038Z,79.90
2022-09-10T10:52:31.260Z,79.90
2022-09-10T10:55:05.720Z,79.90
2022-09-10T10:57:52.225Z,79.80
2022-09-10T11:00:20.901Z,79.70
2022-09-10T11:03:09.811Z,79.70
2022-09-10T11:05:38.911Z,79.60
2022-09-10T11:08:10.158Z,79.50
2022-09-10T11:10:43.963Z,79.40
2022-09-10T11:13:22.397Z,79.20
2022-09-10T11:15:50.056Z,79.10
2022-09-10T11:18:33.678Z,79.00
2022-09-10T11:21:22.540Z,79.00
2022-09-10T11:24:14.956Z,78.80
2022-09-10T11:26:47.629Z,79.40
2022-09-10T11:29:15.447Z,78.70
2022-09-10T11:31:45.012Z,78.90
2022-09-10T11:34:19.442Z,78.80
2022-09-10T11:36:49.605Z,78.70
2022-09-10T11:39:25.735Z,78.80
2022-09-10T11:41:55.070Z,78.90
2022-09-10T11:44:22.834Z,78.90
2022-09-10T11:46:50.476Z,79.10
2022-09-10T11:49:28.390Z,79.30
2022-09-10T11:51:56.882Z,79.30
2022-09-10T11:54:28.564Z,79.20
2022-09-10T11:56:56.109Z,79.10
2022-09-10T11:59:32.331Z,79.00
2022-09-10T12:02:16.898Z,79.50
2022-09-10T12:04:53.942Z,78.60
2022-09-10T12:07:21.537Z,78.50
2022-09-10T12:10:11.063Z,78.40
2022-09-10T12:12:46.170Z,79.00
2022-09-10T12:15:21.419Z,78.20
2022-09-10T12:18:13.399Z,78.20
2022-09-10T12:20:43.440Z,78.10
2022-09-10T12:23:17.663Z,78.20
2022-09-10T12:25:45.714Z,78.10
2022-09-10T12:28:49.554Z,78.10
2022-09-10T12:31:18.446Z,78.00
2022-09-10T12:33:46.050Z,78.00
2022-09-10T12:36:25.892Z,77.90
2022-09-10T12:39:12.555Z,77.90
2022-09-10T12:41:40.338Z,78.00
2022-09-10T12:44:26.342Z,78.30
2022-09-10T12:47:13.813Z,78.30
2022-09-10T12:49:49.315Z,78.40
2022-09-10T12:52:22.893Z,78.30
2022-09-10T12:55:02.356Z,78.20
2022-09-10T12:57:43.301Z,78.20
2022-09-10T13:00:13.355Z,78.80
2022-09-10T13:02:55.201Z,78.10
2022-09-10T13:05:23.123Z,78.00
2022-09-10T13:08:05.028Z,78.10
2022-09-10T13:10:33.321Z,78.10
2022-09-10T13:13:05.144Z,78.20
2022-09-10T13:15:35.941Z,78.20
2022-09-10T13:18:09.346Z,78.00
2022-09-10T13:20:37.457Z,78.00
2022-09-10T13:23:19.573Z,78.00
2022-09-10T13:25:48.151Z,77.90
2022-09-10T13:28:30.969Z,77.90
2022-09-10T13:31:05.141Z,77.90
2022-09-10T13:33:34.616Z,77.80
2022-09-10T13:36:02.565Z,77.80
2022-09-10T13:38:54.251Z,77.80
2022-09-10T13:41:35.097Z,77.90
2022-09-10T13:44:08.679Z,78.00
2022-09-10T13:46:38.074Z,77.80
2022-09-10T13:49:10.448Z,77.80
2022-09-10T13:51:50.297Z,77.90
2022-09-10T13:54:28.881Z,77.90
2022-09-10T13:56:58.949Z,77.60
2022-09-10T13:59:31.470Z,77.50
2022-09-10T14:01:59.679Z,77.20
2022-09-10T14:04:33.865Z,77.20
2022-09-10T14:07:13.300Z,77.10
2022-09-10T14:09:42.706Z,76.90
2022-09-10T14:12:10.894Z,76.80
2022-09-10T14:14:40.213Z,76.50
2022-09-10T14:17:16.684Z,76.60
2022-09-10T14:19:51.381Z,76.30
2022-09-10T14:22:22.656Z,76.20
2022-09-10T14:24:52.756Z,76.80
2022-09-10T14:27:20.688Z,76.10
2022-09-10T14:29:48.523Z,76.10
2022-09-10T14:32:32.488Z,76.10
2022-09-10T14:35:20.323Z,76.20
2022-09-10T14:37:47.929Z,76.20
2022-09-10T14:40:18.044Z,76.90
2022-09-10T14:42:46.839Z,76.20
2022-09-10T14:45:33.333Z,76.20
2022-09-10T14:48:01.468Z,76.20
2022-09-10T14:50:34.876Z,76.20
2022-09-10T14:53:03.181Z,75.80
2022-09-10T14:55:32.224Z,76.10
2022-09-10T14:57:59.996Z,76.10
2022-09-10T15:00:28.534Z,76.20
2022-09-10T15:02:57.482Z,76.30
2022-09-10T15:05:25.031Z,76.50
2022-09-10T15:07:53.091Z,76.50
2022-09-10T15:10:20.785Z,76.60
2022-09-10T15:12:50.124Z,76.50
2022-09-10T15:15:18.547Z,76.30
2022-09-10T15:17:46.155Z,76.20
2022-09-10T15:20:19.505Z,76.00
2022-09-10T15:22:47.419Z,76.10
2022-09-10T15:25:38.718Z,75.80
2022-09-10T15:28:07.765Z,75.80
2022-09-10T15:30:37.070Z,75.70
2022-09-10T15:33:05.558Z,75.70
2022-09-10T15:35:33.498Z,75.60
2022-09-10T15:38:03.951Z,75.40
2022-09-10T15:40:31.756Z,75.50
2022-09-10T15:42:59.696Z,75.30
2022-09-10T15:45:27.476Z,75.30
2022-09-10T15:47:55.150Z,75.20
2022-09-10T15:50:23.049Z,75.10
2022-09-10T15:52:50.757Z,75.30
2022-09-10T15:55:19.738Z,75.20
2022-09-10T15:57:51.235Z,75.30
2022-09-10T16:00:19.204Z,75.50
2022-09-10T16:02:54.140Z,76.10
2022-09-10T16:05:21.745Z,75.60
2022-09-10T16:07:49.854Z,75.70
2022-09-10T16:10:17.911Z,75.80
2022-09-10T16:12:45.479Z,75.80
2022-09-10T16:15:13.439Z,75.70
2022-09-10T16:17:41.184Z,75.80
2022-09-10T16:20:09.065Z,75.90
2022-09-10T16:22:37.128Z,76.30
2022-09-10T16:25:07.465Z,76.30
2022-09-10T16:27:35.133Z,76.60
2022-09-10T16:30:03.072Z,76.70
2022-09-10T16:32:31.026Z,76.90
2022-09-10T16:35:00.572Z,76.90
2022-09-10T16:37:28.589Z,76.80
2022-09-10T16:39:57.021Z,76.70
2022-09-10T16:42:25.331Z,77.20
2022-09-10T16:44:53.219Z,76.40
2022-09-10T16:47:20.877Z,76.60
2022-09-10T16:49:48.522Z,76.70
2022-09-10T16:52:16.407Z,76.80
2022-09-10T16:54:46.390Z,76.30
2022-09-10T16:57:13.901Z,75.90
2022-09-10T16:59:41.743Z,75.70
2022-09-10T17:02:09.384Z,75.50
2022-09-10T17:04:36.965Z,75.20
2022-09-10T17:07:04.926Z,74.90
2022-09-10T17:09:32.603Z,74.80
2022-09-10T17:12:00.806Z,74.70
2022-09-10T17:14:28.731Z,74.90
2022-09-10T17:16:56.955Z,74.60
2022-09-10T17:19:26.587Z,74.50
2022-09-10T17:21:55.893Z,74.60
2022-09-10T17:24:24.573Z,74.70
2022-09-10T17:26:52.984Z,74.80
2022-09-10T17:29:22.875Z,74.50
2022-09-10T17:31:52.427Z,74.50
2022-09-10T17:34:21.732Z,73.30
2022-09-10T17:36:49.798Z,71.50
2022-09-10T17:39:17.515Z,70.60
2022-09-10T17:41:45.497Z,69.30
2022-09-10T17:44:13.794Z,69.50
2022-09-10T17:46:43.050Z,69.90
2022-09-10T17:49:13.392Z,70.40
2022-09-10T17:51:42.077Z,71.00
2022-09-10T17:54:09.855Z,71.40
2022-09-10T17:56:38.309Z,71.90
2022-09-10T17:59:06.851Z,72.50
2022-09-10T18:01:39.252Z,72.60
2022-09-10T18:04:08.144Z,73.00
2022-09-10T18:06:36.573Z,73.40
2022-09-10T18:09:04.852Z,73.60
2022-09-10T18:11:34.716Z,73.70
2022-09-10T18:14:03.111Z,73.80
2022-09-10T18:16:32.464Z,74.10
2022-09-10T18:19:02.017Z,74.10
2022-09-10T18:21:33.376Z,74.40
2022-09-10T18:24:02.415Z,74.30
2022-09-10T18:26:31.345Z,74.40
2022-09-10T18:29:06.763Z,74.30
2022-09-10T18:31:37.086Z,74.40
2022-09-10T18:34:06.012Z,74.00
2022-09-10T18:36:34.336Z,72.20
2022-09-10T18:39:02.761Z,71.00
2022-09-10T18:41:33.998Z,70.00
2022-09-10T18:44:04.230Z,69.10
2022-09-10T18:46:32.768Z,68.10
2022-09-10T18:49:00.423Z,67.60
2022-09-10T18:51:29.958Z,66.60
2022-09-10T18:53:58.853Z,66.60
2022-09-10T18:56:28.015Z,65.00
2022-09-10T18:58:57.496Z,65.70
2022-09-10T19:01:26.223Z,65.40
2022-09-10T19:03:54.536Z,64.90
2022-09-10T19:06:24.256Z,65.40
2022-09-10T19:08:53.618Z,63.20
2022-09-10T19:11:22.204Z,63.50
2022-09-10T19:13:51.394Z,64.20
2022-09-10T19:16:19.776Z,64.60
2022-09-10T19:18:51.523Z,63.90
2022-09-10T19:21:20.502Z,66.00
2022-09-10T19:23:49.745Z,66.90
2022-09-10T19:26:18.046Z,67.10
2022-09-10T19:28:48.054Z,68.50
2022-09-10T19:31:17.262Z,69.00
2022-09-10T19:33:44.958Z,69.00
2022-09-10T19:36:18.026Z,69.70
2022-09-10T19:38:47.306Z,70.40
2022-09-10T19:41:19.049Z,70.70
2022-09-10T19:43:48.149Z,71.20
2022-09-10T19:46:17.247Z,71.20
2022-09-10T19:48:46.822Z,71.80
2022-09-10T19:51:15.718Z,72.50
2022-09-10T19:53:43.783Z,72.70
2022-09-10T19:56:18.259Z,73.10
2022-09-10T19:58:49.955Z,73.10
2022-09-10T20:01:19.254Z,73.50
2022-09-10T20:03:48.386Z,73.60
2022-09-10T20:06:18.583Z,73.60
2022-09-10T20:08:50.708Z,73.80
2022-09-10T20:11:20.899Z,73.60
2022-09-10T20:13:48.797Z,73.70
2022-09-10T20:16:16.803Z,73.90
2022-09-10T20:18:46.963Z,74.10
2022-09-10T20:21:16.273Z,74.00
2022-09-10T20:23:45.321Z,74.10
2022-09-10T20:26:14.846Z,74.10
2022-09-10T20:28:42.663Z,74.30
2022-09-10T20:31:11.732Z,74.00
2022-09-10T20:33:41.718Z,74.40
2022-09-10T20:36:11.310Z,74.70
2022-09-10T20:38:39.592Z,74.80
2022-09-10T20:41:08.149Z,75.30
2022-09-10T20:43:35.786Z,73.90
2022-09-10T20:46:03.959Z,72.20
2022-09-10T20:48:32.175Z,70.60
2022-09-10T20:51:00.501Z,70.00
2022-09-10T20:53:28.508Z,70.00
2022-09-10T20:56:04.929Z,70.30
2022-09-10T20:58:37.049Z,70.00
2022-09-10T21:01:05.786Z,69.80
2022-09-10T21:03:33.972Z,70.10
2022-09-10T21:06:02.234Z,68.90
2022-09-10T21:08:32.878Z,70.10
2022-09-10T21:11:08.475Z,70.10
2022-09-10T21:13:37.249Z,69.80
2022-09-10T21:16:17.330Z,70.00
2022-09-10T21:18:54.171Z,70.40
2022-09-10T21:21:25.724Z,71.00
2022-09-10T21:23:54.970Z,70.70
2022-09-10T21:26:25.325Z,71.00
2022-09-10T21:28:56.633Z,71.30
2022-09-10T21:31:25.639Z,71.30
2022-09-10T21:33:54.678Z,71.20
2022-09-10T21:36:22.605Z,71.60
2022-09-10T21:38:51.552Z,72.20
2022-09-10T21:41:40.167Z,71.50
2022-09-10T21:44:10.745Z,71.70
2022-09-10T21:46:39.822Z,71.90
2022-09-10T21:49:08.036Z,72.40
2022-09-10T21:51:35.697Z,73.10
2022-09-10T21:54:04.889Z,72.60
2022-09-10T21:56:32.768Z,72.30
2022-09-10T21:59:00.941Z,72.50
2022-09-10T22:01:29.771Z,73.10
2022-09-10T22:04:00.134Z,73.30
2022-09-10T22:06:29.166Z,72.70
2022-09-10T22:09:00.996Z,73.10
2022-09-10T22:11:30.522Z,73.10
2022-09-10T22:14:01.185Z,73.60
2022-09-10T22:16:31.240Z,73.70
2022-09-10T22:19:00.516Z,73.70
2022-09-10T22:21:28.980Z,74.30
2022-09-10T22:23:56.609Z,74.20
2022-09-10T22:26:26.005Z,74.80
2022-09-10T22:28:54.781Z,74.70
2022-09-10T22:31:23.941Z,75.10
2022-09-10T22:33:53.305Z,75.30
2022-09-10T22:36:24.537Z,75.10
2022-09-10T22:39:05.805Z,75.10
2022-09-10T22:41:34.783Z,75.60
2022-09-10T22:44:03.252Z,75.60
2022-09-10T22:46:31.159Z,75.90
2022-09-10T22:48:58.845Z,75.90
2022-09-10T22:51:27.818Z,76.40
2022-09-10T22:53:56.235Z,76.60
2022-09-10T22:56:26.330Z,76.80
2022-09-10T22:58:55.811Z,77.00
2022-09-10T23:01:24.774Z,77.30
2022-09-10T23:03:53.186Z,77.40
2022-09-10T23:06:22.707Z,77.50
2022-09-10T23:08:51.680Z,77.70
2022-09-10T23:11:19.542Z,78.00
2022-09-10T23:13:48.862Z,78.00
2022-09-10T23:16:21.203Z,77.80
2022-09-10T23:18:53.354Z,78.20
2022-09-10T23:21:23.630Z,78.30
2022-09-10T23:23:53.029Z,78.50
2022-09-10T23:26:21.909Z,78.50
2022-09-10T23:28:49.799Z,78.50
2022-09-10T23:31:19.360Z,78.40
2022-09-10T23:34:07.177Z,78.90
2022-09-10T23:36:36.357Z,79.10
2022-09-10T23:39:07.890Z,78.80
2022-09-10T23:41:37.070Z,79.20
2022-09-10T23:44:04.733Z,79.00
2022-09-10T23:46:32.701Z,79.20
2022-09-10T23:49:01.216Z,79.20
2022-09-10T23:51:29.193Z,78.80
2022-09-10T23:53:56.844Z,79.20
2022-09-10T23:56:26.225Z,79.20
2022-09-10T23:58:53.863Z,79.30
